Flag for Canada

Past Weather in 43°05'20.5"N, 79°03'47.0"W, Canada — Yesterday and Last 2 Weeks

Currently: 21 °F. Clear. (Weather station: Niagara Falls International Airport, Canada). See more current weather

Past Weather in 43°05'20.5"N, 79°03'47.0"W — Graph

°F

43°05'20.5"N, 79°03'47.0"W Temperature Yesterday

Maximum temperature yesterday: 44 °F (at 2:53 pm)
Minimum temperature yesterday: 26 °F (at 11:53 pm)
Average temperature yesterday: 39 °F

High & Low Weather Summary for the Past Weeks

 TemperatureHumidityPressure
High54 °F (Feb 21, 2:53 pm)93% (Feb 22, 11:04 pm)30.44 "Hg (Feb 22, 11:04 pm)
Low12 °F (Feb 19, 6:53 am)32% (Feb 20, 2:53 pm)29.51 "Hg (Feb 23, 7:00 am)
Average33 °F66%29.91 "Hg
* Reported Feb 9 7:53 pm — Feb 24 7:53 pm, 43°05'20.5"N, 79°03'47.0"W. Weather by CustomWeather, © 2024

Note: Actual official high and low records may vary slightly from our data, if they occured in-between our weather recording intervals... More about our weather records

43°05'20.5"N, 79°03'47.0"W Weather History for the Previous 24 Hours

Scroll right to see more
 ConditionsComfort  
Time TempWeatherWind HumidityBarometerVisibility
7:53 pm
Sat, Feb 24
22 °FClear.5 mph44%30.09 "Hg10 mi
5:53 pm22 °FSunny.5 mph40%30.07 "Hg10 mi
4:53 pm23 °FSunny.6 mph38%30.06 "Hg10 mi
3:53 pm23 °FSunny.8 mph44%30.05 "Hg10 mi
2:53 pm23 °FSunny.8 mph44%30.04 "Hg10 mi
1:53 pm23 °FSunny.8 mph46%30.03 "Hg10 mi
12:53 pm21 °FPassing clouds.7 mph50%30.02 "Hg10 mi
11:53 am21 °FSunny.10 mph47%30.02 "Hg10 mi
10:53 am20 °FScattered clouds.10 mph50%30.01 "Hg10 mi
10:22 am20 °FScattered clouds.9 mph50%29.96 "Hg10 mi
10:00 am20 °FPartly sunny.9 mph50%29.96 "Hg10 mi
9:00 am20 °FOvercast.15 mph50%29.95 "Hg10 mi
7:53 am18 °FScattered clouds.15 mph54%29.98 "Hg10 mi
7:02 am18 °FScattered clouds.16 mph57%29.89 "Hg10 mi
6:29 am19 °FMostly cloudy.13 mph54%29.88 "Hg10 mi
5:53 am19 °FPassing clouds.13 mph57%29.90 "Hg10 mi
4:53 am20 °FClear.14 mph55%29.86 "Hg10 mi
4:09 am20 °FPassing clouds.12 mph57%29.81 "Hg10 mi
3:53 am21 °FPassing clouds.15 mph55%29.84 "Hg10 mi
3:00 am22 °FMostly cloudy.15 mph55%29.79 "Hg10 mi
1:53 am24 °FOvercast.13 mph52%29.81 "Hg10 mi
12:53 am25 °FOvercast.12 mph53%29.79 "Hg10 mi
11:53 pm
Fri, Feb 23
26 °FPassing clouds.14 mph48%29.77 "Hg10 mi
10:53 pm29 °FOvercast.14 mph54%29.75 "Hg10 mi
9:53 pm29 °FOvercast.14 mph58%29.74 "Hg10 mi
Weather by CustomWeather, © 2024

See weather overview